createdAt,value
2019-03-22T00:00:19.728Z,23.00
2019-03-22T00:02:47.012Z,15.98
2019-03-22T00:05:14.409Z,19.30
2019-03-22T00:07:42.150Z,21.48
2019-03-22T00:10:09.611Z,19.60
2019-03-22T00:12:36.896Z,24.15
2019-03-22T00:15:07.553Z,21.12
2019-03-22T00:17:34.908Z,16.62
2019-03-22T00:20:02.258Z,15.72
2019-03-22T00:22:29.549Z,20.88
2019-03-22T00:24:56.810Z,23.62
2019-03-22T00:27:24.112Z,18.25
2019-03-22T00:29:51.422Z,17.20
2019-03-22T00:32:18.690Z,24.05
2019-03-22T00:34:45.962Z,23.62
2019-03-22T00:37:13.259Z,23.02
2019-03-22T00:39:40.553Z,21.07
2019-03-22T00:42:07.897Z,15.32
2019-03-22T00:44:35.356Z,15.63
2019-03-22T00:47:02.724Z,21.35
2019-03-22T00:49:30.037Z,18.05
2019-03-22T00:51:57.305Z,17.15
2019-03-22T00:54:24.570Z,13.28
2019-03-22T00:56:51.855Z,24.47
2019-03-22T00:59:19.147Z,25.27
2019-03-22T01:01:46.422Z,24.02
2019-03-22T01:04:13.775Z,26.33
2019-03-22T01:06:41.054Z,24.12
2019-03-22T01:09:08.331Z,23.83
2019-03-22T01:11:35.689Z,16.17
2019-03-22T01:14:02.974Z,17.65
2019-03-22T01:16:30.310Z,17.42
2019-03-22T01:18:57.580Z,18.75
2019-03-22T01:21:24.884Z,26.17
2019-03-22T01:23:52.165Z,23.67
2019-03-22T01:26:19.467Z,19.90
2019-03-22T01:28:46.746Z,25.25
2019-03-22T01:31:14.010Z,24.80
2019-03-22T01:33:41.307Z,25.37
2019-03-22T01:36:08.728Z,23.50
2019-03-22T01:38:36.162Z,28.92
2019-03-22T01:41:03.513Z,18.90
2019-03-22T01:43:30.790Z,14.73
2019-03-22T01:45:58.082Z,22.90
2019-03-22T01:48:25.378Z,18.67
2019-03-22T01:50:52.672Z,26.80
2019-03-22T01:53:19.952Z,18.45
2019-03-22T01:55:47.245Z,28.10
2019-03-22T01:58:14.591Z,20.60
2019-03-22T02:00:41.873Z,29.32
2019-03-22T02:03:09.317Z,21.20
2019-03-22T02:05:36.624Z,20.48
2019-03-22T02:08:03.952Z,25.27
2019-03-22T02:10:31.249Z,25.40
2019-03-22T02:12:58.538Z,19.62
2019-03-22T02:15:26.363Z,15.80
2019-03-22T02:17:53.660Z,20.00
2019-03-22T02:20:21.021Z,23.38
2019-03-22T02:22:48.280Z,21.82
2019-03-22T02:25:15.774Z,32.15
2019-03-22T02:27:43.210Z,25.77
2019-03-22T02:30:14.781Z,15.35
2019-03-22T02:32:42.156Z,19.50
2019-03-22T02:35:09.972Z,15.50
2019-03-22T02:37:37.235Z,21.55
2019-03-22T02:40:06.077Z,22.82
2019-03-22T02:42:33.411Z,14.15
2019-03-22T02:45:00.707Z,14.95
2019-03-22T02:47:28.070Z,22.58
2019-03-22T02:49:55.434Z,16.02
2019-03-22T02:52:22.712Z,22.77
2019-03-22T02:54:50.030Z,17.90
2019-03-22T02:57:17.384Z,22.45
2019-03-22T02:59:44.660Z,21.15
2019-03-22T03:02:12.019Z,12.05
2019-03-22T03:04:39.299Z,11.22
2019-03-22T03:07:06.642Z,14.53
2019-03-22T03:09:33.913Z,18.37
2019-03-22T03:12:01.190Z,18.98
2019-03-22T03:14:28.521Z,19.67
2019-03-22T03:16:55.837Z,14.65
2019-03-22T03:19:23.111Z,14.70
2019-03-22T03:21:50.424Z,15.58
2019-03-22T03:24:17.705Z,15.05
2019-03-22T03:26:45.003Z,17.27
2019-03-22T03:29:12.263Z,12.63
2019-03-22T03:31:39.691Z,17.48
2019-03-22T03:34:07.036Z,15.60
2019-03-22T03:36:35.035Z,12.37
2019-03-22T03:39:02.642Z,11.57
2019-03-22T03:41:29.924Z,14.00
2019-03-22T03:43:57.200Z,10.65
2019-03-22T03:46:24.474Z,16.90
2019-03-22T03:48:51.772Z,16.37
2019-03-22T03:51:19.223Z,12.20
2019-03-22T03:53:46.505Z,7.22
2019-03-22T03:56:13.807Z,8.25
2019-03-22T03:58:52.243Z,10.93
2019-03-22T04:01:10.130Z,9.43
2019-03-22T04:03:37.414Z,8.33
2019-03-22T04:06:04.775Z,10.30
2019-03-22T04:08:32.059Z,8.43
2019-03-22T04:10:59.326Z,6.00
2019-03-22T04:13:26.607Z,10.08
2019-03-22T04:15:53.907Z,7.30
2019-03-22T04:18:21.187Z,7.28
2019-03-22T04:20:48.525Z,11.60
2019-03-22T04:23:15.825Z,7.12
2019-03-22T04:25:43.181Z,10.25
2019-03-22T04:28:10.474Z,7.75
2019-03-22T04:30:37.817Z,10.72
2019-03-22T04:33:06.831Z,8.88
2019-03-22T04:35:34.147Z,12.30
2019-03-22T04:38:01.419Z,11.12
2019-03-22T04:40:29.489Z,14.60
2019-03-22T04:42:57.207Z,18.42
2019-03-22T04:45:25.900Z,12.03
2019-03-22T04:47:54.772Z,13.50
2019-03-22T04:50:22.325Z,13.75
2019-03-22T04:52:51.058Z,13.70
2019-03-22T04:55:18.802Z,9.65
2019-03-22T04:57:47.199Z,12.88
2019-03-22T05:00:15.958Z,14.07
2019-03-22T05:02:44.542Z,12.23
2019-03-22T05:05:13.019Z,15.05
2019-03-22T05:07:40.657Z,13.13
2019-03-22T05:10:09.114Z,11.97
2019-03-22T05:12:37.770Z,16.05
2019-03-22T05:15:06.605Z,7.97
2019-03-22T05:17:34.042Z,12.43
2019-03-22T05:20:01.953Z,11.28
2019-03-22T05:22:30.339Z,9.20
2019-03-22T05:24:58.674Z,12.05
2019-03-22T05:27:26.434Z,12.82
2019-03-22T05:29:55.370Z,13.93
2019-03-22T05:32:22.649Z,10.68
2019-03-22T05:34:49.917Z,10.82
2019-03-22T05:37:17.207Z,13.55
2019-03-22T05:39:44.504Z,11.57
2019-03-22T05:42:12.035Z,9.50
2019-03-22T05:44:39.316Z,7.67
2019-03-22T05:47:06.594Z,9.38
2019-03-22T05:49:33.848Z,12.15
2019-03-22T05:52:01.135Z,9.60
2019-03-22T05:54:28.403Z,12.47
2019-03-22T05:56:55.689Z,12.37
2019-03-22T05:59:23.141Z,13.98
2019-03-22T06:01:50.412Z,12.82
2019-03-22T06:04:17.674Z,12.68
2019-03-22T06:06:44.965Z,10.40
2019-03-22T06:09:12.399Z,15.28
2019-03-22T06:11:39.710Z,16.60
2019-03-22T06:14:06.991Z,13.70
2019-03-22T06:16:34.251Z,12.73
2019-03-22T06:19:01.521Z,11.50
2019-03-22T06:21:28.818Z,17.62
2019-03-22T06:23:56.085Z,18.70
2019-03-22T06:26:23.366Z,12.55
2019-03-22T06:28:50.653Z,17.40
2019-03-22T06:31:20.608Z,12.63
2019-03-22T06:33:46.913Z,15.60
2019-03-22T06:36:14.198Z,16.23
2019-03-22T06:38:41.457Z,13.22
2019-03-22T06:41:08.761Z,16.93
2019-03-22T06:43:36.123Z,18.23
2019-03-22T06:46:03.621Z,15.70
2019-03-22T06:48:30.928Z,15.53
2019-03-22T06:50:58.205Z,20.08
2019-03-22T06:53:25.470Z,19.45
2019-03-22T06:55:52.758Z,18.45
2019-03-22T06:58:20.022Z,19.52
2019-03-22T07:00:47.308Z,20.65
2019-03-22T07:03:14.578Z,15.78
2019-03-22T07:05:41.886Z,13.68
2019-03-22T07:08:09.169Z,17.75
2019-03-22T07:10:36.516Z,21.87
2019-03-22T07:13:03.809Z,19.77
2019-03-22T07:15:31.078Z,18.07
2019-03-22T07:17:58.365Z,18.27
2019-03-22T07:20:25.670Z,24.80
2019-03-22T07:22:52.938Z,20.95
2019-03-22T07:25:20.231Z,23.73
2019-03-22T07:27:47.544Z,25.20
2019-03-22T07:30:19.034Z,22.35
2019-03-22T07:32:45.391Z,23.92
2019-03-22T07:35:12.686Z,27.22
2019-03-22T07:37:39.958Z,28.80
2019-03-22T07:40:08.701Z,32.25
2019-03-22T07:42:36.154Z,32.48
2019-03-22T07:45:04.929Z,25.40
2019-03-22T07:47:32.232Z,33.53
2019-03-22T07:49:59.567Z,27.22
2019-03-22T07:52:26.953Z,42.58
2019-03-22T07:54:54.262Z,27.55
2019-03-22T07:57:21.521Z,26.30
2019-03-22T07:59:48.806Z,26.50
2019-03-22T08:02:16.104Z,27.22
2019-03-22T08:04:43.394Z,26.00
2019-03-22T08:07:10.674Z,27.13
2019-03-22T08:09:38.157Z,31.40
2019-03-22T08:12:05.453Z,26.65
2019-03-22T08:14:32.750Z,26.00
2019-03-22T08:17:00.122Z,26.37
2019-03-22T08:19:27.465Z,31.50
2019-03-22T08:21:54.736Z,27.10
2019-03-22T08:24:22.066Z,29.18
2019-03-22T08:26:49.405Z,26.10
2019-03-22T08:29:16.757Z,27.00
2019-03-22T08:31:44.026Z,28.10
2019-03-22T08:34:11.319Z,29.63
2019-03-22T08:36:38.620Z,25.40
2019-03-22T08:39:07.633Z,29.63
2019-03-22T08:41:34.921Z,36.30
2019-03-22T08:44:03.006Z,25.70
2019-03-22T08:46:30.490Z,24.60
2019-03-22T08:48:57.841Z,27.75
2019-03-22T08:51:25.218Z,29.48
2019-03-22T08:53:55.605Z,26.07
2019-03-22T08:56:21.997Z,34.23
2019-03-22T08:58:49.458Z,25.85
2019-03-22T09:01:16.748Z,43.45
2019-03-22T09:03:44.107Z,30.68
2019-03-22T09:06:11.413Z,28.17
2019-03-22T09:08:38.720Z,33.02
2019-03-22T09:11:06.048Z,38.63
2019-03-22T09:13:33.354Z,26.12
2019-03-22T09:16:00.713Z,32.35
2019-03-22T09:18:28.003Z,27.45
2019-03-22T09:20:55.362Z,27.77
2019-03-22T09:23:22.664Z,28.40
2019-03-22T09:25:50.118Z,39.53
2019-03-22T09:28:17.496Z,40.98
2019-03-22T09:30:44.878Z,38.92
2019-03-22T09:33:13.466Z,38.83
2019-03-22T09:35:41.188Z,42.80
2019-03-22T09:38:13.177Z,41.92
2019-03-22T09:40:37.472Z,39.78
2019-03-22T09:43:05.192Z,32.95
2019-03-22T09:45:32.467Z,33.45
2019-03-22T09:47:59.780Z,37.95
2019-03-22T09:50:27.212Z,37.75
2019-03-22T09:52:54.542Z,38.67
2019-03-22T09:55:21.994Z,31.15
2019-03-22T09:57:49.632Z,36.38
2019-03-22T10:00:35.166Z,41.95
2019-03-22T10:03:03.173Z,36.68
2019-03-22T10:05:30.590Z,45.25
2019-03-22T10:07:59.433Z,39.60
2019-03-22T10:10:26.756Z,46.25
2019-03-22T10:12:54.107Z,46.08
2019-03-22T10:15:21.400Z,45.78
2019-03-22T10:17:48.755Z,43.13
2019-03-22T10:20:16.227Z,38.50
2019-03-22T10:22:43.687Z,47.30
2019-03-22T10:25:11.052Z,35.52
2019-03-22T10:27:38.424Z,43.55
2019-03-22T10:30:10.027Z,46.58
2019-03-22T10:32:37.367Z,47.70
2019-03-22T10:35:04.923Z,44.33
2019-03-22T10:37:32.253Z,46.20
2019-03-22T10:39:59.520Z,38.83
2019-03-22T10:42:26.817Z,45.08
2019-03-22T10:44:54.167Z,54.73
2019-03-22T10:47:21.451Z,55.12
2019-03-22T10:49:48.747Z,46.40
2019-03-22T10:52:16.305Z,51.55
2019-03-22T10:54:43.655Z,45.30
2019-03-22T10:57:11.060Z,44.48
2019-03-22T10:59:38.339Z,57.17
2019-03-22T11:02:07.848Z,50.05
2019-03-22T11:04:34.688Z,55.63
2019-03-22T11:07:01.956Z,59.90
2019-03-22T11:09:29.211Z,71.65
2019-03-22T11:11:56.599Z,57.48
2019-03-22T11:14:23.870Z,59.95
2019-03-22T11:16:51.150Z,53.58
2019-03-22T11:19:18.644Z,49.93
2019-03-22T11:21:45.975Z,53.13
2019-03-22T11:24:13.306Z,49.23
2019-03-22T11:26:40.592Z,61.42
2019-03-22T11:29:07.872Z,51.90
2019-03-22T11:31:39.873Z,55.70
2019-03-22T11:34:04.293Z,48.00
2019-03-22T11:36:31.564Z,46.08
2019-03-22T11:38:58.860Z,61.13
2019-03-22T11:41:26.145Z,58.00
2019-03-22T11:43:53.621Z,57.43
2019-03-22T11:46:20.911Z,63.02
2019-03-22T11:48:48.274Z,66.62
2019-03-22T11:51:15.546Z,59.15
2019-03-22T11:53:42.856Z,69.53
2019-03-22T11:56:10.118Z,67.95
2019-03-22T11:58:37.417Z,56.20
2019-03-22T12:01:04.779Z,56.18
2019-03-22T12:03:32.049Z,59.23
2019-03-22T12:05:59.346Z,70.60
2019-03-22T12:08:26.631Z,57.25
2019-03-22T12:10:53.924Z,61.45
2019-03-22T12:13:21.199Z,59.55
2019-03-22T12:15:48.567Z,64.12
2019-03-22T12:18:15.934Z,52.43
2019-03-22T12:20:43.300Z,41.75
2019-03-22T12:23:10.581Z,56.18
2019-03-22T12:25:38.008Z,54.33
2019-03-22T12:28:05.276Z,53.10
2019-03-22T12:30:32.572Z,50.00
2019-03-22T12:32:59.891Z,54.85
2019-03-22T12:35:27.235Z,45.10
2019-03-22T12:37:54.556Z,42.65
2019-03-22T12:40:22.325Z,43.42
2019-03-22T12:42:50.484Z,42.88
2019-03-22T12:45:24.878Z,45.55
2019-03-22T12:47:55.546Z,51.55
2019-03-22T12:50:23.528Z,35.03
2019-03-22T12:52:50.810Z,40.35
2019-03-22T12:55:18.190Z,46.37
2019-03-22T12:57:45.502Z,42.98
2019-03-22T13:00:17.242Z,38.85
2019-03-22T13:02:44.798Z,46.05
2019-03-22T13:05:12.240Z,32.95
2019-03-22T13:07:39.696Z,30.92
2019-03-22T13:10:07.738Z,26.82
2019-03-22T13:12:35.074Z,30.10
2019-03-22T13:15:02.502Z,44.75
2019-03-22T13:17:29.804Z,42.10
2019-03-22T13:19:57.064Z,35.40
2019-03-22T13:22:25.134Z,35.28
2019-03-22T13:24:52.413Z,44.67
2019-03-22T13:27:19.708Z,39.42
2019-03-22T13:29:46.990Z,31.57
2019-03-22T13:32:14.293Z,39.08
2019-03-22T13:34:41.595Z,43.63
2019-03-22T13:37:08.904Z,27.15
2019-03-22T13:39:36.188Z,31.33
2019-03-22T13:42:03.584Z,35.43
2019-03-22T13:44:30.926Z,40.75
2019-03-22T13:46:58.220Z,32.45
2019-03-22T13:49:25.498Z,42.08
2019-03-22T13:51:52.804Z,31.10
2019-03-22T13:54:20.104Z,52.13
2019-03-22T13:56:47.366Z,54.58
2019-03-22T13:59:14.657Z,27.02
2019-03-22T14:01:41.929Z,30.97
2019-03-22T14:04:09.329Z,36.38
2019-03-22T14:06:36.673Z,22.45
2019-03-22T14:09:05.850Z,31.73
2019-03-22T14:11:33.121Z,26.07
2019-03-22T14:14:00.392Z,30.32
2019-03-22T14:16:27.698Z,32.30
2019-03-22T14:18:55.005Z,30.40
2019-03-22T14:21:22.636Z,29.57
2019-03-22T14:23:49.906Z,30.12
2019-03-22T14:26:17.176Z,32.25
2019-03-22T14:28:44.493Z,22.98
2019-03-22T14:31:11.754Z,39.18
2019-03-22T14:33:39.051Z,27.95
2019-03-22T14:36:06.390Z,19.45
2019-03-22T14:38:33.697Z,21.37
2019-03-22T14:41:00.959Z,26.33
2019-03-22T14:43:28.279Z,36.08
2019-03-22T14:45:55.562Z,34.88
2019-03-22T14:48:22.842Z,26.87
2019-03-22T14:50:50.231Z,25.85
2019-03-22T14:53:17.522Z,30.75
2019-03-22T14:55:44.818Z,35.48
2019-03-22T14:58:12.107Z,26.17
2019-03-22T15:00:39.433Z,30.23
2019-03-22T15:03:08.420Z,32.10
2019-03-22T15:05:35.686Z,31.65
2019-03-22T15:08:02.987Z,22.07
2019-03-22T15:10:30.375Z,24.90
2019-03-22T15:12:57.843Z,28.62
2019-03-22T15:15:29.931Z,24.10
2019-03-22T15:18:02.407Z,27.13
2019-03-22T15:20:34.031Z,33.00
2019-03-22T15:23:03.102Z,34.33
2019-03-22T15:25:48.486Z,32.85
2019-03-22T15:28:33.790Z,33.50
2019-03-22T15:31:20.367Z,23.80
2019-03-22T15:34:05.705Z,29.10
2019-03-22T15:36:51.027Z,24.90
2019-03-22T15:39:26.164Z,39.38
2019-03-22T15:41:53.942Z,30.10
2019-03-22T15:44:21.300Z,19.67
2019-03-22T15:46:48.889Z,31.65
2019-03-22T15:49:16.299Z,37.58
2019-03-22T15:51:43.603Z,33.45
2019-03-22T15:54:10.905Z,41.48
2019-03-22T15:56:38.233Z,38.48
2019-03-22T15:59:05.521Z,36.42
2019-03-22T16:01:32.806Z,33.30
2019-03-22T16:04:00.085Z,28.05
2019-03-22T16:06:27.546Z,37.17
2019-03-22T16:08:54.893Z,42.48
2019-03-22T16:11:22.239Z,38.35
2019-03-22T16:13:51.182Z,42.80
2019-03-22T16:16:18.620Z,37.40
2019-03-22T16:18:46.130Z,34.90
2019-03-22T16:21:13.506Z,26.40
2019-03-22T16:23:40.775Z,34.30
2019-03-22T16:26:08.204Z,38.75
2019-03-22T16:28:35.479Z,40.35
2019-03-22T16:31:02.842Z,38.35
2019-03-22T16:33:30.245Z,49.00
2019-03-22T16:35:57.543Z,29.65
2019-03-22T16:38:24.893Z,34.63
2019-03-22T16:40:53.737Z,32.17
2019-03-22T16:43:21.012Z,40.17
2019-03-22T16:45:48.451Z,40.33
2019-03-22T16:48:15.923Z,35.25
2019-03-22T16:50:43.280Z,38.83
2019-03-22T16:53:10.632Z,30.62
2019-03-22T16:55:38.007Z,30.17
2019-03-22T16:58:05.377Z,24.15
2019-03-22T17:00:32.719Z,35.48
2019-03-22T17:03:00.161Z,33.00
2019-03-22T17:05:27.520Z,25.97
2019-03-22T17:07:54.847Z,23.02
2019-03-22T17:10:23.569Z,31.00
2019-03-22T17:12:51.087Z,32.40
2019-03-22T17:15:18.416Z,22.32
2019-03-22T17:17:45.698Z,26.17
2019-03-22T17:20:12.961Z,34.48
2019-03-22T17:22:40.250Z,35.35
2019-03-22T17:25:07.611Z,40.63
2019-03-22T17:27:34.974Z,31.20
2019-03-22T17:30:02.611Z,36.13
2019-03-22T17:32:29.920Z,27.05
2019-03-22T17:34:57.279Z,46.33
2019-03-22T17:37:24.647Z,48.83
2019-03-22T17:39:51.939Z,55.25
2019-03-22T17:42:19.295Z,68.47
2019-03-22T17:44:46.570Z,65.35
2019-03-22T17:47:13.843Z,55.03
2019-03-22T17:49:48.076Z,64.40
2019-03-22T17:52:10.155Z,61.70
2019-03-22T17:54:37.438Z,51.85
2019-03-22T17:57:04.734Z,77.03
2019-03-22T17:59:31.997Z,80.07
2019-03-22T18:01:59.316Z,77.20
2019-03-22T18:04:26.656Z,91.15
2019-03-22T18:06:53.939Z,72.72
2019-03-22T18:09:21.208Z,84.28
2019-03-22T18:11:48.502Z,81.08
2019-03-22T18:14:15.778Z,85.00
2019-03-22T18:16:43.293Z,78.97
2019-03-22T18:19:10.570Z,91.95
2019-03-22T18:21:37.842Z,77.55
2019-03-22T18:24:05.150Z,96.02
2019-03-22T18:26:32.481Z,102.02
2019-03-22T18:28:59.774Z,80.00
2019-03-22T18:31:27.209Z,69.82
2019-03-22T18:33:54.685Z,95.95
2019-03-22T18:36:21.987Z,89.87
2019-03-22T18:38:49.261Z,77.67
2019-03-22T18:41:16.523Z,77.08
2019-03-22T18:43:43.823Z,70.47
2019-03-22T18:46:11.091Z,82.22
2019-03-22T18:48:38.378Z,65.67
2019-03-22T18:51:05.822Z,84.45
2019-03-22T18:53:33.097Z,81.22
2019-03-22T18:56:00.364Z,62.48
2019-03-22T18:58:27.641Z,74.40
2019-03-22T19:00:54.913Z,62.15
2019-03-22T19:03:22.212Z,73.35
2019-03-22T19:05:49.477Z,60.28
2019-03-22T19:08:16.975Z,64.25
2019-03-22T19:10:44.397Z,62.62
2019-03-22T19:13:11.745Z,66.95
2019-03-22T19:15:39.043Z,55.83
2019-03-22T19:18:06.525Z,64.72
2019-03-22T19:20:33.871Z,63.75
2019-03-22T19:23:01.155Z,69.53
2019-03-22T19:25:28.419Z,79.40
2019-03-22T19:27:55.786Z,74.65
2019-03-22T19:30:23.071Z,70.85
2019-03-22T19:32:50.669Z,71.35
2019-03-22T19:35:17.946Z,85.47
2019-03-22T19:37:45.260Z,64.07
2019-03-22T19:40:14.089Z,75.90
2019-03-22T19:42:41.639Z,74.97
2019-03-22T19:45:10.334Z,78.22
2019-03-22T19:47:37.597Z,98.33
2019-03-22T19:50:05.970Z,70.20
2019-03-22T19:52:33.247Z,80.00
2019-03-22T19:55:00.622Z,64.77
2019-03-22T19:57:27.917Z,68.85
2019-03-22T19:59:55.226Z,68.55
2019-03-22T20:02:23.198Z,74.25
2019-03-22T20:04:50.495Z,60.00
2019-03-22T20:07:26.550Z,82.60
2019-03-22T20:09:46.996Z,69.10
2019-03-22T20:12:14.458Z,63.55
2019-03-22T20:14:41.807Z,99.30
2019-03-22T20:17:09.094Z,87.88
2019-03-22T20:19:36.363Z,86.80
2019-03-22T20:22:04.034Z,82.50
2019-03-22T20:24:31.402Z,78.92
2019-03-22T20:26:58.667Z,116.50
2019-03-22T20:29:26.037Z,112.45
2019-03-22T20:31:53.316Z,96.08
2019-03-22T20:34:20.595Z,97.30
2019-03-22T20:36:47.872Z,106.52
2019-03-22T20:39:15.484Z,94.28
2019-03-22T20:41:42.766Z,116.40
2019-03-22T20:44:10.076Z,108.83
2019-03-22T20:46:37.526Z,116.93
2019-03-22T20:49:05.247Z,106.40
2019-03-22T20:51:32.870Z,140.22
2019-03-22T20:54:00.142Z,96.25
2019-03-22T20:56:27.458Z,148.02
2019-03-22T20:58:54.751Z,123.07
2019-03-22T21:01:22.022Z,123.50
2019-03-22T21:03:49.460Z,136.77
2019-03-22T21:06:16.918Z,120.08
2019-03-22T21:08:44.196Z,102.95
2019-03-22T21:11:11.470Z,104.25
2019-03-22T21:13:38.762Z,99.67
2019-03-22T21:16:06.130Z,120.85
2019-03-22T21:18:33.423Z,113.77
2019-03-22T21:21:00.698Z,99.37
2019-03-22T21:23:35.990Z,92.88
2019-03-22T21:25:57.041Z,141.25
2019-03-22T21:28:24.325Z,109.55
2019-03-22T21:30:51.611Z,127.62
2019-03-22T21:33:19.190Z,112.92
2019-03-22T21:35:46.494Z,119.37
2019-03-22T21:38:15.668Z,112.40
2019-03-22T21:40:42.966Z,127.42
2019-03-22T21:43:10.242Z,114.08
2019-03-22T21:45:37.525Z,111.12
2019-03-22T21:48:04.889Z,115.05
2019-03-22T21:50:32.184Z,119.90
2019-03-22T21:52:59.471Z,143.93
2019-03-22T21:55:26.787Z,106.05
2019-03-22T21:57:54.136Z,115.67
2019-03-22T22:00:21.787Z,110.25
2019-03-22T22:02:49.083Z,114.03
2019-03-22T22:05:16.344Z,92.10
2019-03-22T22:07:43.652Z,96.40
2019-03-22T22:10:11.266Z,136.25
2019-03-22T22:12:38.722Z,115.47
2019-03-22T22:15:08.114Z,127.27
2019-03-22T22:17:35.403Z,122.10
2019-03-22T22:20:02.706Z,114.67
2019-03-22T22:22:30.037Z,98.05
2019-03-22T22:24:57.309Z,92.37
2019-03-22T22:27:24.582Z,87.15
2019-03-22T22:29:51.866Z,92.30
2019-03-22T22:32:19.341Z,105.78
2019-03-22T22:34:46.638Z,108.30
2019-03-22T22:37:13.900Z,81.37
2019-03-22T22:39:41.205Z,85.07
2019-03-22T22:42:08.489Z,91.55
2019-03-22T22:44:35.766Z,84.37
2019-03-22T22:47:03.040Z,76.80
2019-03-22T22:49:30.329Z,89.97
2019-03-22T22:51:57.619Z,93.37
2019-03-22T22:54:24.906Z,80.53
2019-03-22T22:56:52.260Z,99.20
2019-03-22T22:59:19.544Z,75.03
2019-03-22T23:01:46.810Z,81.45
2019-03-22T23:04:14.285Z,71.05
2019-03-22T23:06:41.830Z,68.10
2019-03-22T23:09:09.134Z,85.55
2019-03-22T23:11:36.413Z,68.35
2019-03-22T23:14:05.391Z,65.37
2019-03-22T23:16:33.045Z,63.15
2019-03-22T23:19:00.337Z,76.50
2019-03-22T23:21:27.641Z,75.72
2019-03-22T23:23:54.908Z,52.62
2019-03-22T23:26:22.211Z,73.35
2019-03-22T23:28:49.502Z,61.15
2019-03-22T23:31:16.795Z,63.48
2019-03-22T23:33:44.085Z,58.10
2019-03-22T23:36:19.848Z,52.33
2019-03-22T23:38:40.379Z,41.18
2019-03-22T23:41:07.685Z,61.83
2019-03-22T23:43:34.956Z,55.12
2019-03-22T23:46:02.242Z,43.33
2019-03-22T23:48:30.113Z,46.70
2019-03-22T23:50:57.401Z,45.60
2019-03-22T23:53:24.990Z,39.42
2019-03-22T23:55:52.264Z,47.55
2019-03-22T23:58:19.568Z,43.73
